Time;durP1;ratioP1;P1;durP2;ratioP2;P2;SDS_P1;SDS_P2;PMS_P1;PMS_P2;Temp;Humidity;BMP_temperature;BMP_pressure;BME280_temperature;BME280_humidity;BME280_pressure;Samples;Min_cycle;Max_cycle;Signal;HPM_P1;HPM_P2
2021/07/08 00:01:44;;;;;;;6.65;2.80;;;28.70;58.40;;;;;;5076174;28;20037;-76
2021/07/08 00:04:10;;;;;;;5.65;3.20;;;28.70;58.50;;;;;;5076196;28;20024;-75
2021/07/08 00:06:36;;;;;;;5.85;3.03;;;28.70;57.70;;;;;;5075491;28;20440;-76
2021/07/08 00:09:08;;;;;;;9.77;3.22;;;28.70;58.30;;;;;;5075140;28;20072;-76
2021/07/08 00:11:34;;;;;;;7.03;2.83;;;28.70;58.20;;;;;;5075881;28;20474;-76
2021/07/08 00:14:00;;;;;;;11.70;3.15;;;28.70;58.10;;;;;;5075552;28;20048;-75
2021/07/08 00:16:26;;;;;;;9.25;2.92;;;28.70;57.90;;;;;;5075895;28;20025;-76
2021/07/08 00:18:53;;;;;;;6.95;2.70;;;28.70;58.20;;;;;;5074166;28;20025;-75
2021/07/08 00:21:20;;;;;;;8.48;3.10;;;28.70;58.10;;;;;;5075407;28;20487;-76
2021/07/08 00:23:46;;;;;;;6.68;2.65;;;28.70;58.20;;;;;;5074195;28;20029;-76
2021/07/08 00:26:12;;;;;;;6.57;2.90;;;28.70;58.10;;;;;;5075232;28;20021;-76
2021/07/08 00:28:38;;;;;;;8.55;2.67;;;28.70;57.70;;;;;;5073998;28;20035;-75
2021/07/08 00:31:04;;;;;;;6.45;2.63;;;28.70;57.80;;;;;;5075317;28;20401;-78
2021/07/08 00:33:29;;;;;;;6.15;2.88;;;28.60;57.90;;;;;;5073854;28;20488;-75
2021/07/08 00:35:55;;;;;;;6.93;2.97;;;28.60;57.20;;;;;;5075054;28;20373;-76
2021/07/08 00:38:21;;;;;;;7.38;2.65;;;28.50;57.00;;;;;;5075307;28;20032;-78
2021/07/08 00:40:47;;;;;;;7.40;2.60;;;28.50;57.10;;;;;;5075340;28;20143;-75
2021/07/08 00:43:13;;;;;;;7.45;2.80;;;28.40;57.30;;;;;;5074045;28;20089;-78
2021/07/08 00:45:40;;;;;;;8.00;3.22;;;28.40;57.30;;;;;;5075048;28;20059;-79
2021/07/08 00:48:06;;;;;;;5.28;2.90;;;28.30;57.70;;;;;;5075236;28;20024;-81
2021/07/08 00:50:42;;;;;;;6.00;2.65;;;28.30;57.90;;;;;;5075219;28;20035;-79
2021/07/08 00:53:10;;;;;;;5.90;2.65;;;28.30;58.40;;;;;;5075099;28;20495;-79
2021/07/08 00:55:36;;;;;;;5.55;2.42;;;28.30;58.10;;;;;;5073492;28;20024;-79
2021/07/08 00:58:02;;;;;;;5.55;3.42;;;28.30;58.50;;;;;;5074926;28;20028;-79
2021/07/08 01:00:35;;;;;;;7.35;3.35;;;28.30;59.00;;;;;;5075238;28;20028;-79
2021/07/08 01:03:03;;;;;;;6.55;2.95;;;28.30;58.30;;;;;;5075969;28;20090;-79
2021/07/08 01:05:36;;;;;;;7.63;2.70;;;28.30;58.40;;;;;;5075454;28;20121;-80
2021/07/08 01:08:03;;;;;;;8.63;2.70;;;28.30;58.30;;;;;;5074369;28;20051;-80
2021/07/08 01:10:30;;;;;;;5.85;2.55;;;28.20;58.60;;;;;;5074578;28;20429;-80
2021/07/08 01:12:56;;;;;;;7.25;2.90;;;28.20;58.40;;;;;;5074479;28;20066;-78
2021/07/08 01:15:21;;;;;;;4.30;2.30;;;28.20;58.90;;;;;;5073039;28;20107;-78
2021/07/08 01:17:48;;;;;;;4.10;2.08;;;28.20;58.70;;;;;;5074195;28;20037;-79
2021/07/08 01:20:18;;;;;;;5.28;2.22;;;28.20;59.00;;;;;;5072594;28;20024;-79
2021/07/08 01:22:48;;;;;;;4.38;2.33;;;28.20;60.00;;;;;;5074517;28;20029;-80
2021/07/08 01:25:17;;;;;;;8.45;2.83;;;28.20;59.00;;;;;;5074163;28;20381;-79
2021/07/08 01:27:43;;;;;;;6.13;2.13;;;28.20;58.70;;;;;;5074095;28;20481;-78
2021/07/08 01:30:12;;;;;;;5.78;2.40;;;28.20;58.40;;;;;;5073991;28;20416;-79
2021/07/08 01:32:38;;;;;;;5.65;2.40;;;28.20;58.70;;;;;;5074179;28;20035;-81
2021/07/08 01:35:06;;;;;;;5.20;2.42;;;28.20;59.10;;;;;;5072763;28;20025;-79
2021/07/08 01:37:32;;;;;;;7.05;2.38;;;28.20;58.40;;;;;;5073951;28;20070;-80
2021/07/08 01:40:00;;;;;;;5.10;2.10;;;28.20;59.30;;;;;;5074169;28;20024;-80
2021/07/08 01:42:27;;;;;;;8.30;2.30;;;28.20;58.10;;;;;;5073839;28;20027;-79
2021/07/08 01:44:53;;;;;;;8.93;2.20;;;28.20;57.70;;;;;;5073782;28;20082;-80
2021/07/08 01:47:19;;;;;;;6.43;2.28;;;28.20;58.20;;;;;;5073990;28;20024;-77
2021/07/08 01:49:45;;;;;;;5.57;2.55;;;28.20;58.30;;;;;;5073840;28;20415;-80
2021/07/08 01:52:10;;;;;;;6.95;2.45;;;28.20;58.30;;;;;;5073811;28;20380;-77
2021/07/08 01:54:36;;;;;;;3.60;2.00;;;28.20;58.50;;;;;;5073928;28;20016;-79
2021/07/08 01:57:02;;;;;;;4.35;2.30;;;28.20;58.20;;;;;;5073626;28;20040;-79
2021/07/08 01:59:28;;;;;;;5.57;2.80;;;28.30;58.10;;;;;;5072380;28;20095;-79
2021/07/08 02:01:53;;;;;;;5.70;2.60;;;28.30;58.30;;;;;;5073774;28;20051;-81
2021/07/08 02:04:19;;;;;;;8.75;2.63;;;28.20;58.60;;;;;;5073800;28;20032;-80
2021/07/08 02:06:44;;;;;;;6.65;2.42;;;28.20;57.90;;;;;;5073528;28;20020;-80
2021/07/08 02:09:10;;;;;;;6.50;2.97;;;28.30;58.60;;;;;;5073213;28;20052;-80
2021/07/08 02:11:37;;;;;;;7.05;2.63;;;28.30;58.30;;;;;;5072405;28;20025;-80
2021/07/08 02:14:03;;;;;;;8.27;2.67;;;28.30;57.70;;;;;;5073476;28;20035;-78
2021/07/08 02:16:29;;;;;;;6.72;3.00;;;28.30;58.00;;;;;;5073415;28;20028;-80
2021/07/08 02:18:54;;;;;;;10.00;3.10;;;28.20;58.30;;;;;;5073431;28;20490;-79
2021/07/08 02:21:20;;;;;;;6.85;3.08;;;28.20;58.30;;;;;;5072035;28;20489;-80
2021/07/08 02:23:46;;;;;;;5.82;2.83;;;28.20;58.60;;;;;;5073711;28;20120;-81
2021/07/08 02:26:12;;;;;;;6.80;3.25;;;28.00;58.70;;;;;;5073280;28;20035;-79
2021/07/08 02:28:41;;;;;;;6.60;3.30;;;27.80;58.80;;;;;;5071905;28;20039;-79
2021/07/08 02:31:09;;;;;;;8.23;2.95;;;27.70;57.60;;;;;;5072866;28;20033;-80
2021/07/08 02:33:36;;;;;;;6.22;2.78;;;27.70;59.10;;;;;;5073539;28;20020;-79
2021/07/08 02:36:02;;;;;;;5.22;2.85;;;27.80;57.60;;;;;;5071743;28;20119;-80
2021/07/08 02:38:28;;;;;;;6.75;3.15;;;27.70;58.50;;;;;;5071887;28;20108;-80
2021/07/08 02:40:55;;;;;;;9.43;3.20;;;27.70;58.30;;;;;;5073235;28;20071;-81
2021/07/08 02:43:20;;;;;;;7.85;2.92;;;27.70;58.80;;;;;;5073206;28;20060;-79
2021/07/08 02:45:49;;;;;;;4.93;2.78;;;27.70;58.40;;;;;;5073249;28;20044;-80
2021/07/08 02:48:18;;;;;;;9.85;3.38;;;27.80;58.20;;;;;;5073602;28;20034;-80
2021/07/08 02:50:45;;;;;;;7.55;3.35;;;27.90;57.50;;;;;;5073868;28;20387;-79
2021/07/08 02:53:13;;;;;;;9.07;3.13;;;28.00;57.40;;;;;;5073117;28;20031;-81
2021/07/08 02:55:41;;;;;;;8.00;3.53;;;28.00;57.20;;;;;;5072953;28;20025;-80
2021/07/08 02:58:07;;;;;;;7.07;3.50;;;27.90;56.90;;;;;;5071830;28;20335;-80
2021/07/08 03:00:35;;;;;;;7.70;3.55;;;27.90;57.40;;;;;;5071722;28;20099;-79
2021/07/08 03:03:01;;;;;;;7.60;3.35;;;27.90;57.00;;;;;;5072814;28;20024;-81
2021/07/08 03:05:27;;;;;;;12.27;3.50;;;28.00;57.10;;;;;;5073010;28;20021;-80
2021/07/08 03:07:59;;;;;;;6.65;3.22;;;28.00;57.70;;;;;;5072888;28;20104;-80
2021/07/08 03:10:26;;;;;;;6.68;2.92;;;27.90;57.50;;;;;;5072795;28;20044;-80
2021/07/08 03:12:53;;;;;;;8.73;3.28;;;27.90;57.10;;;;;;5073029;28;20029;-78
2021/07/08 03:15:22;;;;;;;12.32;4.22;;;27.80;57.10;;;;;;5071444;28;20025;-78
2021/07/08 03:17:48;;;;;;;11.13;3.33;;;27.80;57.20;;;;;;5072610;28;20039;-79
2021/07/08 03:20:20;;;;;;;8.98;3.80;;;27.80;57.80;;;;;;5072013;28;20024;-79
2021/07/08 03:22:46;;;;;;;8.05;3.50;;;27.90;57.10;;;;;;5072939;28;20121;-79
2021/07/08 03:25:14;;;;;;;6.57;3.05;;;27.80;57.60;;;;;;5072837;28;20043;-78
2021/07/08 03:27:42;;;;;;;8.55;3.30;;;27.80;57.80;;;;;;5072630;28;20016;-80
2021/07/08 03:30:13;;;;;;;13.63;3.65;;;27.70;57.40;;;;;;5073380;28;20028;-80
2021/07/08 03:32:39;;;;;;;15.18;3.78;;;27.70;58.00;;;;;;5073761;28;20016;-81
2021/07/08 03:35:06;;;;;;;14.23;4.40;;;27.70;58.00;;;;;;5072039;28;20029;-80
2021/07/08 03:37:33;;;;;;;19.42;4.70;;;27.70;57.90;;;;;;5072985;28;20037;-81
2021/07/08 03:39:58;;;;;;;10.77;4.22;;;27.70;57.70;;;;;;5072918;28;20020;-80
2021/07/08 03:42:24;;;;;;;11.45;4.38;;;27.60;57.90;;;;;;5074928;28;20041;-80
2021/07/08 03:44:51;;;;;;;13.13;4.55;;;27.50;57.90;;;;;;5075297;28;20024;-79
2021/07/08 03:47:16;;;;;;;17.55;4.50;;;27.50;57.70;;;;;;5076489;28;20362;-80
2021/07/08 03:49:44;;;;;;;16.45;4.25;;;27.50;57.90;;;;;;5076416;28;20027;-80
2021/07/08 03:52:10;;;;;;;16.13;4.72;;;27.50;57.90;;;;;;5076527;28;20020;-79
2021/07/08 03:54:36;;;;;;;12.52;4.28;;;27.50;57.80;;;;;;5058436;28;20359;-81
2021/07/08 03:57:02;;;;;;;8.20;3.72;;;27.50;57.60;;;;;;5076102;28;20044;-79
2021/07/08 03:59:28;;;;;;;15.02;4.38;;;27.50;57.50;;;;;;5076135;28;20021;-81
2021/07/08 04:01:54;;;;;;;18.63;4.53;;;27.50;57.50;;;;;;5076401;28;20029;-81
2021/07/08 04:04:21;;;;;;;16.90;4.80;;;27.40;57.50;;;;;;5076271;28;20412;-82
2021/07/08 04:06:49;;;;;;;19.48;4.13;;;27.40;58.10;;;;;;5058516;28;20037;-80
2021/07/08 04:09:15;;;;;;;16.30;4.15;;;27.30;58.50;;;;;;5074547;28;20048;-79
2021/07/08 04:11:41;;;;;;;10.88;4.55;;;27.30;58.10;;;;;;5076220;28;20036;-80
2021/07/08 04:14:06;;;;;;;21.95;4.75;;;27.30;57.90;;;;;;5075975;28;20066;-81
2021/07/08 04:16:32;;;;;;;13.00;4.00;;;27.30;57.90;;;;;;5076377;28;20040;-79
2021/07/08 04:18:58;;;;;;;15.57;4.72;;;27.40;57.70;;;;;;5075123;28;20035;-75
2021/07/08 04:21:24;;;;;;;9.85;4.28;;;27.40;57.70;;;;;;5075497;28;20028;-75
2021/07/08 04:23:52;;;;;;;9.88;4.47;;;27.50;57.60;;;;;;5074172;28;20012;-76
2021/07/08 04:26:18;;;;;;;14.02;4.03;;;27.50;58.30;;;;;;5074174;28;20496;-76
2021/07/08 04:28:45;;;;;;;9.90;3.60;;;27.60;57.50;;;;;;5075354;28;20398;-77
2021/07/08 04:31:15;;;;;;;14.82;4.68;;;27.60;57.40;;;;;;5074223;28;20056;-76
2021/07/08 04:33:45;;;;;;;13.20;3.95;;;27.60;57.50;;;;;;5076267;28;20024;-81
2021/07/08 04:36:12;;;;;;;10.57;4.03;;;27.60;58.10;;;;;;5071748;28;20107;-78
2021/07/08 04:38:41;;;;;;;13.60;4.18;;;27.70;57.50;;;;;;5068133;28;20088;-80
2021/07/08 04:41:07;;;;;;;9.95;4.18;;;27.60;59.00;;;;;;5059173;28;20013;-80
2021/07/08 04:43:37;;;;;;;10.10;3.72;;;27.60;59.30;;;;;;5068031;28;20130;-80
2021/07/08 04:46:06;;;;;;;6.88;3.65;;;27.70;58.90;;;;;;5073814;28;20025;-80
2021/07/08 04:48:31;;;;;;;11.55;3.80;;;27.70;58.30;;;;;;5075152;28;20028;-80
2021/07/08 04:51:01;;;;;;;11.30;3.67;;;27.70;58.70;;;;;;5075426;28;20508;-79
2021/07/08 04:53:27;;;;;;;11.98;3.85;;;27.70;58.10;;;;;;5074079;28;20021;-78
2021/07/08 04:55:54;;;;;;;6.97;3.63;;;27.70;58.60;;;;;;5075162;28;20090;-79
2021/07/08 04:58:20;;;;;;;10.68;4.00;;;27.70;59.00;;;;;;5075428;28;20027;-81
2021/07/08 05:00:45;;;;;;;10.88;3.90;;;27.70;59.30;;;;;;5075641;28;20021;-79
2021/07/08 05:03:12;;;;;;;13.23;4.30;;;27.70;59.50;;;;;;5075567;28;20085;-80
2021/07/08 05:05:38;;;;;;;11.00;3.60;;;27.70;60.40;;;;;;5074855;28;20044;-79
2021/07/08 05:08:05;;;;;;;11.05;4.35;;;27.70;59.40;;;;;;5073190;28;20156;-80
2021/07/08 05:10:31;;;;;;;10.25;4.00;;;27.80;59.50;;;;;;5074948;28;20025;-79
2021/07/08 05:12:57;;;;;;;11.10;4.18;;;27.70;59.30;;;;;;5074601;28;20082;-76
2021/07/08 05:15:23;;;;;;;10.50;4.05;;;27.70;59.70;;;;;;5074628;28;20082;-79
2021/07/08 05:17:49;;;;;;;9.18;3.78;;;27.70;60.10;;;;;;5074393;28;20491;-75
2021/07/08 05:20:16;;;;;;;8.35;3.63;;;27.80;60.00;;;;;;5073928;28;20067;-78
2021/07/08 05:22:46;;;;;;;13.35;3.88;;;28.00;59.30;;;;;;5073977;28;20032;-76
2021/07/08 05:25:15;;;;;;;8.07;3.70;;;28.10;60.20;;;;;;5073689;28;20031;-79
2021/07/08 05:27:43;;;;;;;16.17;3.92;;;28.20;59.10;;;;;;5072705;28;20028;-74
2021/07/08 05:30:12;;;;;;;7.68;3.28;;;28.30;59.50;;;;;;5074157;28;20024;-78
2021/07/08 05:32:37;;;;;;;11.70;3.88;;;28.20;60.90;;;;;;5073358;28;20033;-77
2021/07/08 05:35:04;;;;;;;5.95;3.28;;;28.30;61.10;;;;;;5070259;28;20039;-79
2021/07/08 05:37:30;;;;;;;9.65;3.75;;;28.30;61.30;;;;;;5071992;28;20119;-76
2021/07/08 05:40:06;;;;;;;10.38;3.47;;;28.30;61.60;;;;;;5058375;28;20108;-77
2021/07/08 05:42:31;;;;;;;9.30;3.45;;;28.30;60.40;;;;;;5065195;28;20047;-72
2021/07/08 05:44:58;;;;;;;12.00;3.35;;;28.30;60.90;;;;;;5072788;28;20027;-79
2021/07/08 05:47:24;;;;;;;13.18;3.25;;;28.30;60.00;;;;;;5054823;28;20402;-78
2021/07/08 05:49:49;;;;;;;11.05;3.53;;;28.30;59.50;;;;;;5053417;28;20029;-79
2021/07/08 05:52:15;;;;;;;14.18;3.85;;;28.40;59.50;;;;;;5053419;28;20025;-77
2021/07/08 05:54:41;;;;;;;10.45;4.00;;;28.60;59.10;;;;;;5053378;28;20481;-79
2021/07/08 05:57:07;;;;;;;10.20;3.72;;;28.70;58.60;;;;;;5053214;28;20049;-78
2021/07/08 05:59:33;;;;;;;9.02;3.50;;;28.70;58.50;;;;;;5055788;28;20066;-79
2021/07/08 06:01:58;;;;;;;8.70;3.50;;;28.70;59.80;;;;;;5053319;28;20024;-80
2021/07/08 06:04:24;;;;;;;11.23;3.97;;;28.70;59.80;;;;;;5053215;28;20021;-75
2021/07/08 06:06:50;;;;;;;13.23;3.60;;;28.70;58.50;;;;;;5053380;28;20021;-74
2021/07/08 06:09:16;;;;;;;10.88;3.72;;;28.70;58.30;;;;;;5053223;28;20044;-74
2021/07/08 06:11:42;;;;;;;9.05;3.70;;;28.70;58.10;;;;;;5053303;28;20029;-74
2021/07/08 06:14:07;;;;;;;11.57;4.10;;;28.70;57.70;;;;;;5051875;28;20036;-73
2021/07/08 06:16:33;;;;;;;13.75;4.43;;;28.60;57.50;;;;;;5052855;28;20037;-75
2021/07/08 06:19:10;;;;;;;12.30;4.55;;;28.60;57.50;;;;;;5053240;28;20048;-77
2021/07/08 06:21:36;;;;;;;15.02;4.85;;;28.60;57.30;;;;;;5053272;28;20033;-79
2021/07/08 06:24:02;;;;;;;12.30;4.32;;;28.50;57.40;;;;;;5052926;28;20009;-75
2021/07/08 06:26:28;;;;;;;13.80;4.70;;;28.60;57.00;;;;;;5053709;28;20363;-77
2021/07/08 06:28:53;;;;;;;12.88;4.53;;;28.60;56.90;;;;;;5058540;28;20020;-76
2021/07/08 06:31:19;;;;;;;16.33;4.65;;;28.60;56.60;;;;;;5062092;28;20040;-73
2021/07/08 06:33:45;;;;;;;15.93;4.85;;;28.60;57.20;;;;;;5051470;28;20032;-74
2021/07/08 06:36:11;;;;;;;20.48;5.07;;;28.60;57.20;;;;;;5053149;28;20064;-74
2021/07/08 06:38:36;;;;;;;34.55;5.70;;;28.60;56.80;;;;;;5072645;28;20028;-77
2021/07/08 06:41:02;;;;;;;34.53;6.35;;;28.70;56.60;;;;;;5072717;28;20051;-74
2021/07/08 06:43:29;;;;;;;15.60;4.78;;;28.70;56.40;;;;;;5069438;28;20036;-73
2021/07/08 06:45:55;;;;;;;23.80;5.47;;;28.70;56.10;;;;;;5071474;28;20028;-72
2021/07/08 06:48:21;;;;;;;13.10;4.07;;;28.80;55.90;;;;;;5065051;28;20482;-73
2021/07/08 06:50:47;;;;;;;25.33;5.05;;;28.90;56.00;;;;;;5060440;28;20029;-74
2021/07/08 06:53:13;;;;;;;20.38;4.93;;;28.90;55.70;;;;;;5068781;28;20029;-73
2021/07/08 06:55:39;;;;;;;12.55;4.63;;;28.90;55.70;;;;;;5072418;28;20432;-74
2021/07/08 06:58:06;;;;;;;19.60;4.63;;;28.80;55.60;;;;;;5070141;28;20071;-74
2021/07/08 07:00:38;;;;;;;12.40;4.53;;;28.80;55.60;;;;;;5065013;28;20025;-75
2021/07/08 07:03:05;;;;;;;16.02;4.10;;;28.80;55.20;;;;;;5072087;28;20373;-75
2021/07/08 07:05:32;;;;;;;24.33;5.13;;;28.90;55.20;;;;;;5066779;28;20021;-73
2021/07/08 07:07:58;;;;;;;23.55;4.80;;;29.20;54.80;;;;;;5067824;28;20054;-72
2021/07/08 07:10:25;;;;;;;18.58;5.05;;;29.50;54.60;;;;;;5072031;28;20063;-72
2021/07/08 07:12:54;;;;;;;24.58;7.15;;;29.90;54.40;;;;;;5071516;28;20103;-71
2021/07/08 07:15:28;;;;;;;16.55;4.90;;;30.10;54.00;;;;;;5072295;28;20041;-72
2021/07/08 07:17:56;;;;;;;20.80;5.57;;;30.10;52.50;;;;;;5074827;28;20089;-73
2021/07/08 07:20:22;;;;;;;18.77;4.03;;;30.10;53.90;;;;;;5074819;28;20025;-72
2021/07/08 07:22:48;;;;;;;11.70;3.60;;;30.10;53.20;;;;;;5076103;28;20032;-73
2021/07/08 07:25:17;;;;;;;17.27;3.75;;;30.00;53.10;;;;;;5075765;28;20101;-72
2021/07/08 07:27:43;;;;;;;10.38;3.92;;;29.90;53.30;;;;;;5075862;28;20028;-72
2021/07/08 07:30:09;;;;;;;14.32;4.03;;;30.10;52.80;;;;;;5075803;28;20483;-74
2021/07/08 07:32:36;;;;;;;9.05;3.58;;;30.40;51.40;;;;;;5075472;28;20035;-72
2021/07/08 07:35:03;;;;;;;14.20;3.67;;;30.70;51.80;;;;;;5075764;28;20055;-72
2021/07/08 07:37:29;;;;;;;13.07;4.18;;;30.90;51.60;;;;;;5074100;28;20051;-72
2021/07/08 07:39:55;;;;;;;18.45;4.20;;;31.10;51.50;;;;;;5075667;28;20418;-73
2021/07/08 07:42:21;;;;;;;42.08;5.88;;;31.20;51.60;;;;;;5075535;28;20120;-72
2021/07/08 07:44:48;;;;;;;13.38;4.38;;;31.40;51.80;;;;;;5074003;28;20098;-75
2021/07/08 07:47:15;;;;;;;14.25;4.15;;;31.50;51.60;;;;;;5075427;28;20032;-72
2021/07/08 07:49:44;;;;;;;12.77;3.65;;;31.60;52.00;;;;;;5075670;28;20468;-73
2021/07/08 07:52:12;;;;;;;19.25;3.65;;;31.80;51.30;;;;;;5075830;28;20016;-73
2021/07/08 07:54:38;;;;;;;15.55;4.43;;;31.90;51.20;;;;;;5075739;28;20031;-72
2021/07/08 07:57:05;;;;;;;13.90;4.00;;;32.00;51.10;;;;;;5075360;28;20037;-73
2021/07/08 07:59:35;;;;;;;9.45;3.25;;;32.10;50.90;;;;;;5074273;28;20032;-73
2021/07/08 08:02:02;;;;;;;13.90;3.88;;;32.10;50.60;;;;;;5075705;28;20024;-73
2021/07/08 08:04:30;;;;;;;12.95;4.20;;;32.20;50.70;;;;;;5075960;28;20021;-72
2021/07/08 08:09:42;;;;;;;8.85;3.40;;;32.20;50.00;;;;;;5075580;28;20090;-73
2021/07/08 08:12:08;;;;;;;9.15;3.28;;;32.30;49.60;;;;;;5075437;28;20103;-73
2021/07/08 08:14:35;;;;;;;31.55;5.40;;;32.30;49.40;;;;;;5075566;28;20086;-74
2021/07/08 08:17:01;;;;;;;23.27;4.47;;;32.30;49.80;;;;;;5074209;28;20140;-72
2021/07/08 08:19:29;;;;;;;36.42;7.20;;;32.40;49.60;;;;;;5073894;28;20024;-75
2021/07/08 08:21:55;;;;;;;23.33;5.47;;;32.20;49.40;;;;;;5075046;28;20104;-73
2021/07/08 08:24:21;;;;;;;43.67;6.95;;;32.10;49.60;;;;;;5075154;28;20056;-74
2021/07/08 08:26:51;;;;;;;32.63;6.30;;;32.10;50.00;;;;;;5074913;28;20029;-72
2021/07/08 08:29:17;;;;;;;40.67;7.45;;;32.00;50.10;;;;;;5056455;28;20453;-75
2021/07/08 08:31:43;;;;;;;16.65;4.55;;;32.00;50.80;;;;;;5075110;28;20024;-74
2021/07/08 08:34:08;;;;;;;49.00;8.63;;;31.90;50.20;;;;;;5075178;28;20103;-74
2021/07/08 08:36:34;;;;;;;28.85;5.78;;;31.80;49.80;;;;;;5074766;28;20055;-75
2021/07/08 08:39:00;;;;;;;23.88;5.07;;;31.80;49.90;;;;;;5075790;28;20389;-73
2021/07/08 08:41:25;;;;;;;32.30;6.78;;;31.70;49.90;;;;;;5074595;28;20024;-74
2021/07/08 08:43:51;;;;;;;15.25;4.35;;;31.60;49.60;;;;;;5074533;28;20381;-72
2021/07/08 08:46:17;;;;;;;11.75;3.35;;;31.50;49.50;;;;;;5074084;28;20017;-73
2021/07/08 08:48:43;;;;;;;14.05;4.47;;;31.50;49.80;;;;;;5073561;28;20522;-72
2021/07/08 08:51:09;;;;;;;9.77;4.30;;;31.50;49.70;;;;;;5074154;28;20100;-75
2021/07/08 08:53:35;;;;;;;8.88;3.65;;;31.50;49.40;;;;;;5072700;28;20457;-73
2021/07/08 08:56:01;;;;;;;13.55;3.53;;;31.60;49.10;;;;;;5074265;28;20048;-74
2021/07/08 08:58:27;;;;;;;10.88;3.40;;;31.50;49.70;;;;;;5073527;28;20462;-73
2021/07/08 09:00:56;;;;;;;7.85;3.50;;;31.50;49.70;;;;;;5072476;28;20416;-73
2021/07/08 09:03:25;;;;;;;10.70;3.63;;;31.50;50.10;;;;;;5073947;28;20031;-72
2021/07/08 09:06:05;;;;;;;10.95;3.42;;;31.40;49.70;;;;;;5073532;28;20028;-75
2021/07/08 09:08:31;;;;;;;14.60;4.05;;;31.40;48.00;;;;;;5073580;28;20521;-74
2021/07/08 09:11:20;;;;;;;12.73;3.55;;;31.30;50.10;;;;;;5073792;28;20149;-73
2021/07/08 09:14:01;;;;;;;14.35;4.05;;;31.30;48.10;;;;;;5073668;28;20054;-73
2021/07/08 09:16:33;;;;;;;45.35;7.28;;;31.30;48.50;;;;;;5073613;28;20032;-72
2021/07/08 09:19:09;;;;;;;25.55;5.00;;;31.30;50.40;;;;;;5073575;28;20039;-71
2021/07/08 09:21:43;;;;;;;58.85;9.25;;;31.30;50.40;;;;;;5072327;28;20032;-77
2021/07/08 09:24:31;;;;;;;20.67;4.28;;;31.30;48.70;;;;;;5071997;28;20028;-78
2021/07/08 09:27:02;;;;;;;12.93;3.80;;;31.40;48.70;;;;;;5073338;28;20021;-77
2021/07/08 09:29:35;;;;;;;23.77;4.90;;;31.40;51.40;;;;;;5073966;28;20020;-78
2021/07/08 09:32:10;;;;;;;14.35;4.80;;;31.40;48.70;;;;;;5073685;28;20108;-78
2021/07/08 09:34:37;;;;;;;15.75;3.95;;;31.40;48.80;;;;;;5055465;28;20424;-75
2021/07/08 09:37:16;;;;;;;11.65;4.10;;;31.50;51.10;;;;;;5071945;28;20040;-77
2021/07/08 09:39:59;;;;;;;14.25;4.38;;;31.50;49.00;;;;;;5072310;28;20080;-78
2021/07/08 09:42:46;;;;;;;45.47;8.35;;;31.50;48.90;;;;;;5074188;28;20116;-79
2021/07/08 09:45:21;;;;;;;64.90;8.10;;;31.50;50.80;;;;;;5073353;28;20021;-75
2021/07/08 09:47:47;;;;;;;23.35;5.25;;;31.50;49.20;;;;;;5073187;28;20094;-78
2021/07/08 09:50:35;;;;;;;21.33;3.95;;;31.50;50.60;;;;;;5071764;28;20024;-76
2021/07/08 09:53:10;;;;;;;17.30;4.10;;;31.50;50.70;;;;;;5071466;28;20052;-77
2021/07/08 09:58:57;;;;;;;18.83;4.30;;;31.50;48.20;;;;;;5073072;28;20041;-80
2021/07/08 10:01:23;;;;;;;16.38;4.20;;;31.50;49.90;;;;;;5072873;28;20048;-78
2021/07/08 10:03:52;;;;;;;61.00;8.60;;;31.60;50.00;;;;;;5073344;28;20027;-78
2021/07/08 10:06:20;;;;;;;43.53;7.45;;;31.70;50.20;;;;;;5072636;28;20120;-75
2021/07/08 10:08:49;;;;;;;22.63;5.22;;;31.70;50.00;;;;;;5072712;28;20048;-76
2021/07/08 10:11:19;;;;;;;22.20;4.68;;;31.80;50.00;;;;;;5072529;28;20103;-79
2021/07/08 10:13:45;;;;;;;20.40;3.97;;;31.80;49.90;;;;;;5070990;28;20112;-79
2021/07/08 10:16:14;;;;;;;20.92;4.90;;;31.80;49.30;;;;;;5071012;28;20120;-80
2021/07/08 10:18:42;;;;;;;71.60;11.15;;;31.80;49.50;;;;;;5072232;28;20025;-74
2021/07/08 10:21:09;;;;;;;117.93;17.20;;;31.90;49.70;;;;;;5072658;28;20032;-70
2021/07/08 10:23:37;;;;;;;52.13;9.52;;;32.00;49.80;;;;;;5072769;28;20029;-74
2021/07/08 10:26:05;;;;;;;156.07;17.65;;;32.00;49.90;;;;;;5072867;28;20017;-80
2021/07/08 10:28:33;;;;;;;68.97;9.95;;;32.10;49.60;;;;;;5072988;28;20051;-79
2021/07/08 10:31:00;;;;;;;63.13;9.35;;;32.10;49.00;;;;;;5072735;28;20016;-75
2021/07/08 10:33:25;;;;;;;219.15;26.15;;;32.10;49.10;;;;;;5072423;28;20358;-74
2021/07/08 10:35:55;;;;;;;97.07;15.23;;;32.20;48.70;;;;;;5070630;28;20138;-75
2021/07/08 10:38:37;;;;;;;27.23;5.53;;;32.20;48.90;;;;;;5072484;28;20482;-75
2021/07/08 10:41:35;;;;;;;30.27;6.03;;;32.30;49.00;;;;;;5072669;28;20031;-76
2021/07/08 10:44:01;;;;;;;22.63;6.50;;;32.40;47.10;;;;;;5071051;28;20029;-78
2021/07/08 10:46:37;;;;;;;48.13;8.45;;;32.40;49.10;;;;;;5072400;28;20107;-78
2021/07/08 10:49:11;;;;;;;44.40;9.20;;;32.50;49.70;;;;;;5072157;28;20412;-78
2021/07/08 10:51:42;;;;;;;67.18;11.38;;;32.60;49.60;;;;;;5070120;28;20077;-81
2021/07/08 10:54:46;;;;;;;19.60;6.22;;;32.70;48.00;;;;;;5072531;28;20035;-82
2021/07/08 10:57:36;;;;;;;33.50;6.63;;;32.80;47.30;;;;;;5031136;28;20044;-82
2021/07/08 11:00:06;;;;;;;16.88;4.75;;;32.90;49.30;;;;;;5072302;28;20097;-81
2021/07/08 11:02:51;;;;;;;60.30;9.15;;;33.00;47.20;;;;;;5071048;28;20060;-81
2021/07/08 11:05:55;;;;;;;27.27;5.65;;;33.20;49.00;;;;;;5072620;28;20070;-82
2021/07/08 11:08:39;;;;;;;;;;;33.30;46.80;;;;;;5072767;28;20505;-81
2021/07/08 11:11:07;;;;;;;;;;;33.40;46.90;;;;;;5074387;28;19908;-80
2021/07/08 11:13:35;;;;;;;27.70;4.45;;;33.40;48.10;;;;;;5073140;28;20369;-78
2021/07/08 11:16:04;;;;;;;22.50;4.47;;;33.60;47.30;;;;;;5072132;28;20036;-72
2021/07/08 11:18:32;;;;;;;18.42;4.20;;;33.70;46.40;;;;;;5072808;28;20028;-75
2021/07/08 11:20:58;;;;;;;19.88;4.78;;;33.80;45.70;;;;;;5071254;28;20548;-73
2021/07/08 11:23:39;;;;;;;12.50;3.38;;;33.80;45.90;;;;;;5070850;28;20366;-73
2021/07/08 11:26:07;;;;;;;15.27;3.63;;;33.90;46.00;;;;;;5072280;28;20093;-73
2021/07/08 11:28:34;;;;;;;18.25;3.17;;;33.80;46.10;;;;;;5072106;28;20107;-74
2021/07/08 11:31:03;;;;;;;25.83;4.63;;;33.80;47.30;;;;;;5072265;28;20040;-73
2021/07/08 11:33:32;;;;;;;29.48;3.97;;;33.70;48.70;;;;;;5072151;28;20021;-73
2021/07/08 11:36:01;;;;;;;33.63;4.00;;;33.60;50.00;;;;;;5072351;28;20027;-74
2021/07/08 11:38:31;;;;;;;29.17;4.78;;;33.50;51.70;;;;;;5073177;28;20051;-81
2021/07/08 11:40:58;;;;;;;20.48;2.90;;;33.50;51.60;;;;;;5072306;28;20032;-69
2021/07/08 11:43:31;;;;;;;20.80;4.13;;;33.40;52.40;;;;;;5072078;28;20111;-68
2021/07/08 11:46:04;;;;;;;22.58;3.88;;;33.40;52.60;;;;;;5070585;28;20035;-70
2021/07/08 11:48:33;;;;;;;12.82;2.92;;;33.30;52.90;;;;;;5072188;28;20028;-70
2021/07/08 11:51:00;;;;;;;13.27;3.00;;;33.20;54.00;;;;;;5071406;28;20025;-71
2021/07/08 11:53:26;;;;;;;17.25;3.15;;;33.20;54.40;;;;;;5070299;28;20404;-69
2021/07/08 11:56:00;;;;;;;11.98;3.13;;;33.00;54.30;;;;;;5071420;28;20039;-70
2021/07/08 11:58:27;;;;;;;;;;;33.00;54.30;;;;;;5072260;28;20028;-69
2021/07/08 12:01:19;;;;;;;14.27;3.30;;;33.00;55.20;;;;;;5072370;28;20304;-78
2021/07/08 12:03:55;;;;;;;52.17;9.32;;;32.90;53.40;;;;;;5074276;28;20079;-74
2021/07/08 12:06:30;;;;;;;17.75;4.05;;;32.70;54.70;;;;;;5073968;28;20024;-72
2021/07/08 12:08:58;;;;;;;9.63;3.47;;;32.70;54.80;;;;;;5073619;28;20429;-72
2021/07/08 12:11:34;;;;;;;10.70;2.50;;;32.70;54.80;;;;;;5073306;28;20063;-71
2021/07/08 12:14:22;;;;;;;7.68;2.47;;;32.80;55.10;;;;;;5075196;28;20108;-74
2021/07/08 12:16:53;;;;;;;11.15;2.22;;;32.80;53.90;;;;;;5073424;28;20096;-72
2021/07/08 12:19:26;;;;;;;8.70;2.20;;;32.70;53.90;;;;;;5074972;28;20100;-75
2021/07/08 12:21:54;;;;;;;6.75;1.92;;;32.60;53.60;;;;;;5073056;28;20021;-74
2021/07/08 12:24:45;;;;;;;103.00;10.90;;;32.70;53.50;;;;;;5074639;28;20524;-73
2021/07/08 12:27:11;;;;;;;7.90;2.33;;;32.80;52.00;;;;;;5071786;28;20037;-73
2021/07/08 12:29:39;;;;;;;8.77;2.78;;;32.80;53.40;;;;;;5075130;28;20032;-69
2021/07/08 12:32:06;;;;;;;7.22;2.10;;;32.90;53.80;;;;;;5074548;28;20016;-74
2021/07/08 12:34:38;;;;;;;12.55;2.78;;;33.00;53.70;;;;;;5073391;28;20036;-76
2021/07/08 12:37:21;;;;;;;9.65;2.70;;;33.00;53.80;;;;;;5074743;28;20363;-70
2021/07/08 12:39:54;;;;;;;8.63;2.05;;;33.10;52.50;;;;;;5075045;28;20319;-74
2021/07/08 12:42:34;;;;;;;18.65;2.80;;;33.10;53.50;;;;;;5076870;28;20035;-73
2021/07/08 12:45:07;;;;;;;13.90;2.70;;;33.10;51.60;;;;;;5075289;28;20021;-72
2021/07/08 12:47:34;;;;;;;12.20;2.40;;;33.00;52.20;;;;;;5075599;28;20028;-72
2021/07/08 12:50:00;;;;;;;6.40;1.90;;;33.10;52.90;;;;;;5075772;28;20033;-74
2021/07/08 12:52:26;;;;;;;7.75;1.60;;;33.10;52.70;;;;;;5075070;28;20024;-70
2021/07/08 12:54:52;;;;;;;8.40;1.98;;;33.10;52.20;;;;;;5077054;28;20025;-72